Time;durP1;ratioP1;P1;durP2;ratioP2;P2;SDS_P1;SDS_P2;PMS_P1;PMS_P2;Temp;Humidity;BMP_temperature;BMP_pressure;BME280_temperature;BME280_humidity;BME280_pressure;Samples;Min_cycle;Max_cycle;Signal;HPM_P1;HPM_P2
2020/12/23 00:00:51;;;;;;;;;;;14.30;88.50;;;;;;5020456;28;19935;-45
2020/12/23 00:03:17;;;;;;;;;;;14.30;88.70;;;;;;5018754;28;19935;-45
2020/12/23 00:05:46;;;;;;;;;;;14.30;88.40;;;;;;5020180;28;19936;-45
2020/12/23 00:08:12;;;;;;;;;;;14.30;88.70;;;;;;5016794;28;19937;-44
2020/12/23 00:10:39;;;;;;;;;;;14.30;88.70;;;;;;5020238;28;19929;-45
2020/12/23 00:13:05;;;;;;;;;;;14.30;88.70;;;;;;5019818;28;20278;-45
2020/12/23 00:15:32;;;;;;;;;;;14.30;88.80;;;;;;5033194;28;25050;-45
2020/12/23 00:17:59;;;;;;;;;;;14.30;89.00;;;;;;5019730;28;19931;-44
2020/12/23 00:20:26;;;;;;;;;;;14.30;88.90;;;;;;5025039;28;20465;-45
2020/12/23 00:22:52;;;;;;;;;;;14.20;89.20;;;;;;5018413;28;19932;-45
2020/12/23 00:25:18;;;;;;;;;;;14.20;89.20;;;;;;5018267;28;19933;-43
2020/12/23 00:27:44;;;;;;;;;;;14.20;89.20;;;;;;5018685;28;19925;-45
2020/12/23 00:30:11;;;;;;;;;;;14.20;89.40;;;;;;5018026;28;20377;-44
2020/12/23 00:32:38;;;;;;;;;;;14.30;89.10;;;;;;5018951;28;20270;-42
2020/12/23 00:35:04;;;;;;;;;;;14.30;89.10;;;;;;5017529;28;19929;-43
2020/12/23 00:37:33;;;;;;;;;;;14.30;89.10;;;;;;5016119;28;19925;-44
2020/12/23 00:39:59;;;;;;;;;;;14.30;89.00;;;;;;5014847;28;19932;-45
2020/12/23 00:42:27;;;;;;;;;;;14.30;88.80;;;;;;5020652;28;19952;-45
2020/12/23 00:44:54;;;;;;;;;;;14.30;88.90;;;;;;5012905;28;20408;-44
2020/12/23 00:47:20;;;;;;;;;;;14.30;88.90;;;;;;5020275;28;20362;-44
2020/12/23 00:49:46;;;;;;;;;;;14.30;89.40;;;;;;5016866;28;19929;-45
2020/12/23 00:52:12;;;;;;;;;;;14.30;89.30;;;;;;5015811;28;20309;-44
2020/12/23 00:54:38;;;;;;;;;;;14.30;89.00;;;;;;5016160;28;20035;-44
2020/12/23 00:57:04;;;;;;;;;;;14.30;88.90;;;;;;5017866;28;19929;-43
2020/12/23 00:59:35;;;;;;;;;;;14.40;88.50;;;;;;5018161;28;20004;-44
2020/12/23 01:02:03;;;;;;;;;;;14.40;88.60;;;;;;5018102;28;19937;-44
2020/12/23 01:04:29;;;;;;;;;;;14.40;88.40;;;;;;5017629;28;20273;-44
2020/12/23 01:06:56;;;;;;;;;;;14.40;88.60;;;;;;5015882;28;19933;-44
2020/12/23 01:09:22;;;;;;;;;;;14.40;88.40;;;;;;5016730;28;19932;-44
2020/12/23 01:11:48;;;;;;;;;;;14.40;88.60;;;;;;5011626;28;19955;-45
2020/12/23 01:14:15;;;;;;;;;;;14.40;88.50;;;;;;5010400;28;20083;-45
2020/12/23 01:16:42;;;;;;;;;;;14.50;88.50;;;;;;5010844;28;19925;-45
2020/12/23 01:19:08;;;;;;;;;;;14.50;88.40;;;;;;5013636;28;20373;-43
2020/12/23 01:21:34;;;;;;;;;;;14.50;88.20;;;;;;5012268;28;19940;-43
2020/12/23 01:24:00;;;;;;;;;;;14.50;88.10;;;;;;5010426;28;19925;-42
2020/12/23 01:26:26;;;;;;;;;;;14.50;88.00;;;;;;5012514;28;19933;-45
2020/12/23 01:28:53;;;;;;;;;;;14.50;88.00;;;;;;5011034;28;19936;-43
2020/12/23 01:31:22;;;;;;;;;;;14.60;88.00;;;;;;5008518;28;19933;-45
2020/12/23 01:34:03;;;;;;;;;;;14.60;87.90;;;;;;5011339;28;19933;-43
2020/12/23 01:36:29;;;;;;;;;;;14.60;87.90;;;;;;5013259;28;19936;-44
2020/12/23 01:38:55;;;;;;;;;;;14.60;87.70;;;;;;5015138;28;20452;-45
2020/12/23 01:41:21;;;;;;;;;;;14.60;87.60;;;;;;5012282;28;19932;-43
2020/12/23 01:43:51;;;;;;;;;;;14.70;87.50;;;;;;5014234;28;20149;-43
2020/12/23 01:46:18;;;;;;;;;;;14.60;87.50;;;;;;5009106;28;19940;-45
2020/12/23 01:48:44;;;;;;;;;;;14.60;87.40;;;;;;5010983;28;19936;-43
2020/12/23 01:51:11;;;;;;;;;;;14.60;87.30;;;;;;5011517;28;20405;-44
2020/12/23 01:53:37;;;;;;;;;;;14.60;87.10;;;;;;5014136;28;19940;-43
2020/12/23 01:56:05;;;;;;;;;;;14.60;87.00;;;;;;5019662;28;19925;-43
2020/12/23 01:58:34;;;;;;;;;;;14.60;86.90;;;;;;5016668;28;19936;-44
2020/12/23 02:01:01;;;;;;;;;;;14.60;87.00;;;;;;5016700;28;20839;-43
2020/12/23 02:03:27;;;;;;;;;;;14.60;86.90;;;;;;5014408;28;19933;-43
2020/12/23 02:05:55;;;;;;;;;;;14.50;87.10;;;;;;5013769;28;20401;-44
2020/12/23 02:08:21;;;;;;;;;;;14.50;87.10;;;;;;5010199;28;19933;-44
2020/12/23 02:10:49;;;;;;;;;;;14.50;87.10;;;;;;5017809;28;19937;-44
2020/12/23 02:13:33;;;;;;;;;;;14.40;87.10;;;;;;5021747;28;19929;-41
2020/12/23 02:15:59;;;;;;;;;;;14.40;87.00;;;;;;5011437;28;19933;-43
2020/12/23 02:18:25;;;;;;;;;;;14.30;87.10;;;;;;5012608;28;19964;-44
2020/12/23 02:20:52;;;;;;;;;;;14.30;87.10;;;;;;5017211;28;19936;-42
2020/12/23 02:23:18;;;;;;;;;;;14.30;87.10;;;;;;5017842;28;19929;-44
2020/12/23 02:25:44;;;;;;;;;;;14.30;87.30;;;;;;5012958;28;19936;-43
2020/12/23 02:28:10;;;;;;;;;;;14.20;87.40;;;;;;5016063;28;19933;-45
2020/12/23 02:30:37;;;;;;;;;;;14.20;87.30;;;;;;5018364;28;22667;-44
2020/12/23 02:33:03;;;;;;;;;;;14.20;87.40;;;;;;5011853;28;19940;-44
2020/12/23 02:35:29;;;;;;;;;;;14.20;87.60;;;;;;5015763;28;19933;-44
2020/12/23 02:37:55;;;;;;;;;;;14.10;87.70;;;;;;5017741;28;19936;-44
2020/12/23 02:40:21;;;;;;;;;;;14.10;87.90;;;;;;5015341;28;19940;-44
2020/12/23 02:42:50;;;;;;;;;;;14.20;87.80;;;;;;5016112;28;19925;-44
2020/12/23 02:45:18;;;;;;;;;;;14.20;87.80;;;;;;5013462;28;19933;-44
2020/12/23 02:47:45;;;;;;;;;;;14.10;87.80;;;;;;5013740;28;20389;-44
2020/12/23 02:50:11;;;;;;;;;;;14.10;88.10;;;;;;5013844;28;19940;-43
2020/12/23 02:52:39;;;;;;;;;;;14.00;88.50;;;;;;5015235;28;19933;-44
2020/12/23 02:55:05;;;;;;;;;;;14.00;88.20;;;;;;5014042;28;19929;-43
2020/12/23 02:57:31;;;;;;;;;;;14.00;88.10;;;;;;5028480;28;19933;-44
2020/12/23 02:59:57;;;;;;;;;;;14.00;88.30;;;;;;5015015;28;19936;-44
2020/12/23 03:02:24;;;;;;;;;;;13.90;88.00;;;;;;5019509;28;19929;-45
2020/12/23 03:04:59;;;;;;;;;;;13.90;87.90;;;;;;5006903;28;19929;-44
2020/12/23 03:07:25;;;;;;;;;;;13.90;87.90;;;;;;5017056;28;19940;-44
2020/12/23 03:09:53;;;;;;;;;;;13.90;88.10;;;;;;5013506;28;19933;-44
2020/12/23 03:12:19;;;;;;;;;;;13.90;87.70;;;;;;5011399;28;19940;-43
2020/12/23 03:14:46;;;;;;;;;;;13.90;87.70;;;;;;5015084;28;20379;-43
2020/12/23 03:17:12;;;;;;;;;;;14.00;87.40;;;;;;5017484;28;19942;-44
2020/12/23 03:19:38;;;;;;;;;;;14.00;87.20;;;;;;5017341;28;19939;-44
2020/12/23 03:22:04;;;;;;;;;;;14.00;87.20;;;;;;5008893;28;19940;-43
2020/12/23 03:24:30;;;;;;;;;;;14.00;87.10;;;;;;5012163;28;20411;-44
2020/12/23 03:26:56;;;;;;;;;;;14.00;87.10;;;;;;5013901;28;19933;-44
2020/12/23 03:29:22;;;;;;;;;;;13.90;86.90;;;;;;5014991;28;20389;-44
2020/12/23 03:31:48;;;;;;;;;;;13.90;87.10;;;;;;5011629;28;21505;-44
2020/12/23 03:34:17;;;;;;;;;;;13.90;87.00;;;;;;5016720;28;19929;-44
2020/12/23 03:36:46;;;;;;;;;;;13.90;86.90;;;;;;5014690;28;19929;-42
2020/12/23 03:39:12;;;;;;;;;;;13.90;86.90;;;;;;5013911;28;20300;-45
2020/12/23 03:41:38;;;;;;;;;;;13.80;87.10;;;;;;5015428;28;19929;-43
2020/12/23 03:44:04;;;;;;;;;;;13.80;87.30;;;;;;5014519;28;20007;-42
2020/12/23 03:46:30;;;;;;;;;;;13.80;87.10;;;;;;5014980;28;20635;-43
2020/12/23 03:48:57;;;;;;;;;;;13.80;87.10;;;;;;5014615;28;19926;-43
2020/12/23 03:51:23;;;;;;;;;;;13.70;86.60;;;;;;5014531;28;20478;-43
2020/12/23 03:53:49;;;;;;;;;;;13.70;87.00;;;;;;5008128;28;19929;-42
2020/12/23 03:56:15;;;;;;;;;;;13.70;87.00;;;;;;5013607;28;19960;-43
2020/12/23 03:58:42;;;;;;;;;;;13.70;86.90;;;;;;5013385;28;19933;-43
2020/12/23 04:01:10;;;;;;;;;;;13.80;86.90;;;;;;5010739;28;19932;-42
2020/12/23 04:03:37;;;;;;;;;;;13.80;86.80;;;;;;5010760;28;19933;-42
2020/12/23 04:06:03;;;;;;;;;;;13.80;86.70;;;;;;5014137;28;19933;-43
2020/12/23 04:08:30;;;;;;;;;;;13.70;86.60;;;;;;5012949;28;20365;-44
2020/12/23 04:10:56;;;;;;;;;;;13.70;86.80;;;;;;5012313;28;19933;-44
2020/12/23 04:13:22;;;;;;;;;;;13.70;86.80;;;;;;5012973;28;19980;-44
2020/12/23 04:15:49;;;;;;;;;;;13.80;86.70;;;;;;5011348;28;20415;-44
2020/12/23 04:18:15;;;;;;;;;;;13.80;86.60;;;;;;5014290;28;20538;-43
2020/12/23 04:20:42;;;;;;;;;;;13.80;86.60;;;;;;5014074;28;20305;-44
2020/12/23 04:23:09;;;;;;;;;;;13.80;86.40;;;;;;5010825;28;20050;-44
2020/12/23 04:25:35;;;;;;;;;;;13.80;86.50;;;;;;5011651;28;20320;-43
2020/12/23 04:28:01;;;;;;;;;;;13.80;86.50;;;;;;5016180;28;19926;-44
2020/12/23 04:30:28;;;;;;;;;;;13.80;86.40;;;;;;5013459;28;20321;-44
2020/12/23 04:32:54;;;;;;;;;;;13.80;86.30;;;;;;5009127;28;19940;-43
2020/12/23 04:35:20;;;;;;;;;;;13.80;86.30;;;;;;5014054;28;20819;-44
2020/12/23 04:37:49;;;;;;;;;;;13.80;86.30;;;;;;5011048;28;19940;-43
2020/12/23 04:40:15;;;;;;;;;;;13.80;86.30;;;;;;5012288;28;20572;-43
2020/12/23 04:42:42;;;;;;;;;;;13.80;86.20;;;;;;5014025;28;19935;-43
2020/12/23 04:45:08;;;;;;;;;;;13.80;86.20;;;;;;5008972;28;19933;-44
2020/12/23 04:47:36;;;;;;;;;;;13.80;86.30;;;;;;5012960;28;19925;-42
2020/12/23 04:50:03;;;;;;;;;;;13.80;86.30;;;;;;5011483;28;19944;-42
2020/12/23 04:52:33;;;;;;;;;;;13.80;86.30;;;;;;5015068;28;19935;-42
2020/12/23 04:55:01;;;;;;;;;;;13.80;86.30;;;;;;5014568;28;19925;-42
2020/12/23 04:57:28;;;;;;;;;;;13.80;86.30;;;;;;5008287;28;20389;-45
2020/12/23 04:59:54;;;;;;;;;;;13.80;86.30;;;;;;5030103;28;19933;-44
2020/12/23 05:02:24;;;;;;;;;;;13.80;86.30;;;;;;5015784;28;19929;-43
2020/12/23 05:04:50;;;;;;;;;;;13.70;86.40;;;;;;5010840;28;19940;-44
2020/12/23 05:07:20;;;;;;;;;;;13.70;86.40;;;;;;5008323;28;20381;-43
2020/12/23 05:09:48;;;;;;;;;;;13.70;86.40;;;;;;5016320;28;20456;-44
2020/12/23 05:12:15;;;;;;;;;;;13.70;86.40;;;;;;5015669;28;19932;-43
2020/12/23 05:14:41;;;;;;;;;;;13.70;86.50;;;;;;5011398;28;19929;-43
2020/12/23 05:17:11;;;;;;;;;;;13.70;86.50;;;;;;5014103;28;19933;-44
2020/12/23 05:19:38;;;;;;;;;;;13.70;86.40;;;;;;5012299;28;19933;-43
2020/12/23 05:22:05;;;;;;;;;;;13.70;86.50;;;;;;5010014;28;19940;-44
2020/12/23 05:24:32;;;;;;;;;;;13.70;86.50;;;;;;5015154;28;19929;-43
2020/12/23 05:26:58;;;;;;;;;;;13.70;86.50;;;;;;5012572;28;20288;-44
2020/12/23 05:29:24;;;;;;;;;;;13.70;86.40;;;;;;5027238;28;19936;-43
2020/12/23 05:31:51;;;;;;;;;;;13.70;86.30;;;;;;5010740;28;19933;-44
2020/12/23 05:34:18;;;;;;;;;;;13.70;86.30;;;;;;5007909;28;19944;-43
2020/12/23 05:36:47;;;;;;;;;;;13.60;86.40;;;;;;5012685;28;19929;-44
2020/12/23 05:39:13;;;;;;;;;;;13.60;86.40;;;;;;5016069;28;19941;-44
2020/12/23 05:41:39;;;;;;;;;;;13.60;86.30;;;;;;5016546;28;19931;-44
2020/12/23 05:44:17;;;;;;;;;;;13.60;86.30;;;;;;5009551;28;21395;-43
2020/12/23 05:46:52;;;;;;;;;;;13.60;86.30;;;;;;5009857;28;20425;-44
2020/12/23 05:49:19;;;;;;;;;;;13.60;86.30;;;;;;5010620;28;19933;-45
2020/12/23 05:51:45;;;;;;;;;;;13.60;86.40;;;;;;5013496;28;19932;-44
2020/12/23 05:54:12;;;;;;;;;;;13.50;86.40;;;;;;5009125;28;19931;-43
2020/12/23 05:56:38;;;;;;;;;;;13.50;86.50;;;;;;5013288;28;19925;-44
2020/12/23 05:59:05;;;;;;;;;;;13.50;86.70;;;;;;5011898;28;19939;-44
2020/12/23 06:01:36;;;;;;;;;;;13.60;86.70;;;;;;5013932;28;19929;-44
2020/12/23 06:04:03;;;;;;;;;;;13.50;86.70;;;;;;5011636;28;19933;-44
2020/12/23 06:06:31;;;;;;;;;;;13.50;86.70;;;;;;5012303;28;19939;-44
2020/12/23 06:08:58;;;;;;;;;;;13.50;86.70;;;;;;5011971;28;19925;-44
2020/12/23 06:11:36;;;;;;;;;;;13.50;86.70;;;;;;5013647;28;19933;-44
2020/12/23 06:14:02;;;;;;;;;;;13.60;86.70;;;;;;5011855;28;19929;-44
2020/12/23 06:16:32;;;;;;;;;;;13.60;86.70;;;;;;5011543;28;20416;-44
2020/12/23 06:18:59;;;;;;;;;;;13.60;86.70;;;;;;5007361;28;21072;-43
2020/12/23 06:21:26;;;;;;;;;;;13.60;86.70;;;;;;5017174;28;19925;-44
2020/12/23 06:24:01;;;;;;;;;;;13.60;86.80;;;;;;5011514;28;19936;-43
2020/12/23 06:26:29;;;;;;;;;;;13.60;86.70;;;;;;5010188;28;19930;-44
2020/12/23 06:28:56;;;;;;;;;;;13.60;86.70;;;;;;5016605;28;20403;-44
2020/12/23 06:31:27;;;;;;;;;;;13.60;86.70;;;;;;5012060;28;19939;-43
2020/12/23 06:33:54;;;;;;;;;;;13.60;86.70;;;;;;5011248;28;19929;-44
2020/12/23 06:36:20;;;;;;;;;;;13.50;86.80;;;;;;5015644;28;19933;-42
2020/12/23 06:38:46;;;;;;;;;;;13.50;86.80;;;;;;5010417;28;20396;-42
2020/12/23 06:41:21;;;;;;;;;;;13.50;86.90;;;;;;5015302;28;19933;-44
2020/12/23 06:43:54;;;;;;;;;;;13.50;86.70;;;;;;5017671;28;20300;-44
2020/12/23 06:46:21;;;;;;;;;;;13.50;86.70;;;;;;5015355;28;20436;-44
2020/12/23 06:48:47;;;;;;;;;;;13.50;86.80;;;;;;5013061;28;19970;-44
2020/12/23 06:51:33;;;;;;;;;;;13.50;86.80;;;;;;5009220;28;19933;-43
2020/12/23 06:53:59;;;;;;;;;;;13.50;86.70;;;;;;5010378;28;19929;-44
2020/12/23 06:56:44;;;;;;;;;;;13.50;86.80;;;;;;5012504;28;19933;-43
2020/12/23 06:59:39;;;;;;;;;;;13.50;86.80;;;;;;5013950;28;19932;-44
2020/12/23 07:02:06;;;;;;;;;;;13.50;86.80;;;;;;5015609;28;19933;-44
2020/12/23 07:04:32;;;;;;;;;;;13.50;86.90;;;;;;5011485;28;19929;-45
2020/12/23 07:06:58;;;;;;;;;;;13.50;87.00;;;;;;5013820;28;19933;-46
2020/12/23 07:09:25;;;;;;;;;;;13.50;86.90;;;;;;5015708;28;19925;-43
2020/12/23 07:11:53;;;;;;;;;;;13.50;87.00;;;;;;5020183;28;19964;-46
2020/12/23 07:14:20;;;;;;;;;;;13.50;87.00;;;;;;5018267;28;19933;-45
2020/12/23 07:16:47;;;;;;;;;;;13.50;87.00;;;;;;5019462;28;19925;-46
2020/12/23 07:19:13;;;;;;;;;;;13.50;87.10;;;;;;5020262;28;19926;-46
2020/12/23 07:21:39;;;;;;;;;;;13.50;87.10;;;;;;5019335;28;19929;-45
2020/12/23 07:24:08;;;;;;;;;;;13.50;87.10;;;;;;5019713;28;19929;-45
2020/12/23 07:26:38;;;;;;;;;;;13.50;87.00;;;;;;5020392;28;19932;-46
2020/12/23 07:29:10;;;;;;;;;;;13.50;87.10;;;;;;5019320;28;19934;-45
2020/12/23 07:31:40;;;;;;;;;;;13.50;87.00;;;;;;5020730;28;19987;-43
2020/12/23 07:34:07;;;;;;;;;;;13.50;87.10;;;;;;5017097;28;19933;-46
2020/12/23 07:36:35;;;;;;;;;;;13.50;87.10;;;;;;5034817;28;19933;-44
2020/12/23 07:39:01;;;;;;;;;;;13.50;87.20;;;;;;5018231;28;20306;-43
2020/12/23 07:41:27;;;;;;;;;;;13.50;87.10;;;;;;5017930;28;20377;-43
2020/12/23 07:43:55;;;;;;;;;;;13.50;87.10;;;;;;5018850;28;20351;-45
2020/12/23 07:46:24;;;;;;;;;;;13.50;87.20;;;;;;5016998;28;19926;-43
2020/12/23 07:48:51;;;;;;;;;;;13.50;87.20;;;;;;5019858;28;19925;-44
2020/12/23 07:51:17;;;;;;;;;;;13.50;87.10;;;;;;5019766;28;19932;-42
2020/12/23 07:53:44;;;;;;;;;;;13.50;87.10;;;;;;5019686;28;20325;-42
2020/12/23 07:56:10;;;;;;;;;;;13.50;87.10;;;;;;5020059;28;19932;-43
2020/12/23 07:58:36;;;;;;;;;;;13.50;87.10;;;;;;5018393;28;20492;-44
2020/12/23 08:01:07;;;;;;;;;;;13.50;87.30;;;;;;5020822;28;19936;-43
2020/12/23 08:03:33;;;;;;;;;;;13.50;87.30;;;;;;5019962;28;19926;-43
2020/12/23 08:06:06;;;;;;;;;;;13.50;87.40;;;;;;5020198;28;19955;-44
2020/12/23 08:08:33;;;;;;;;;;;13.50;87.50;;;;;;5020575;28;20656;-45
2020/12/23 08:11:09;;;;;;;;;;;13.60;87.60;;;;;;5025224;28;19933;-44
2020/12/23 08:13:38;;;;;;;;;;;13.60;87.70;;;;;;5017546;28;20538;-44
2020/12/23 08:16:12;;;;;;;;;;;13.60;87.70;;;;;;5018660;28;20311;-44
2020/12/23 08:18:41;;;;;;;;;;;13.60;87.80;;;;;;4998363;28;25132;-45
2020/12/23 08:21:11;;;;;;;;;;;13.60;87.80;;;;;;4999428;28;19936;-44
2020/12/23 08:23:41;;;;;;;;;;;13.60;87.70;;;;;;4999497;28;19926;-44
2020/12/23 08:26:08;;;;;;;;;;;13.60;87.70;;;;;;4997622;28;19929;-44
2020/12/23 08:28:38;;;;;;;;;;;13.60;87.70;;;;;;4998737;28;19930;-44
2020/12/23 08:31:05;;;;;;;;;;;13.60;87.80;;;;;;4996398;28;19933;-44
2020/12/23 08:33:38;;;;;;;;;;;13.60;87.80;;;;;;4997387;28;19925;-45
2020/12/23 08:36:05;;;;;;;;;;;13.70;87.80;;;;;;4997027;28;19925;-43
2020/12/23 08:38:40;;;;;;;;;;;13.70;87.90;;;;;;4999241;28;19941;-43
2020/12/23 08:41:14;;;;;;;;;;;13.70;88.00;;;;;;4999359;28;20608;-42
2020/12/23 08:43:45;;;;;;;;;;;13.70;88.10;;;;;;4996841;28;19941;-43
2020/12/23 08:46:21;;;;;;;;;;;13.70;88.10;;;;;;4997068;28;19926;-45
2020/12/23 08:48:50;;;;;;;;;;;13.80;88.20;;;;;;4998693;28;20027;-44
2020/12/23 08:51:20;;;;;;;;;;;13.80;88.20;;;;;;4998127;28;19969;-44
2020/12/23 08:53:51;;;;;;;;;;;13.80;88.20;;;;;;4998352;28;19942;-43
2020/12/23 08:56:29;;;;;;;;;;;13.80;88.10;;;;;;4997584;28;19926;-44
2020/12/23 08:59:01;;;;;;;;;;;13.80;88.10;;;;;;4998592;28;19936;-45
2020/12/23 09:01:28;;;;;;;;;;;13.80;88.20;;;;;;5001226;28;19926;-42
2020/12/23 09:04:15;;;;;;;;;;;13.80;88.20;;;;;;4996657;28;19925;-44
2020/12/23 09:06:49;;;;;;;;;;;13.80;88.30;;;;;;4996982;28;20382;-43
2020/12/23 09:09:21;;;;;;;;;;;13.80;88.20;;;;;;5011427;28;19930;-45
2020/12/23 09:11:52;;;;;;;;;;;13.80;88.20;;;;;;5016112;28;19929;-45
2020/12/23 09:14:22;;;;;;;;;;;13.80;88.50;;;;;;5014603;28;19993;-45
2020/12/23 09:16:55;;;;;;;;;;;13.90;88.60;;;;;;5017242;28;19942;-44
2020/12/23 09:19:41;;;;;;;;;;;13.90;88.50;;;;;;5016747;28;20410;-43
2020/12/23 09:22:07;;;;;;;;;;;13.90;88.50;;;;;;5017470;28;20305;-45
2020/12/23 09:24:34;;;;;;;;;;;13.90;88.30;;;;;;5030666;28;19925;-44
2020/12/23 09:27:00;;;;;;;;;;;13.90;88.40;;;;;;5015868;28;20301;-45
2020/12/23 09:29:42;;;;;;;;;;;13.90;88.30;;;;;;5022533;28;20020;-43
2020/12/23 09:32:08;;;;;;;;;;;13.90;88.40;;;;;;5014375;28;20324;-44
2020/12/23 09:34:50;;;;;;;;;;;13.90;88.40;;;;;;5017650;28;19925;-44
2020/12/23 09:37:27;;;;;;;;;;;13.90;88.40;;;;;;5016802;28;19925;-42
2020/12/23 09:39:54;;;;;;;;;;;13.90;88.40;;;;;;5017217;28;19925;-44
2020/12/23 09:42:20;;;;;;;;;;;14.00;88.40;;;;;;5032056;28;19968;-44
2020/12/23 09:44:46;;;;;;;;;;;14.00;88.40;;;;;;5015377;28;19935;-44
2020/12/23 09:47:12;;;;;;;;;;;14.00;88.30;;;;;;5016319;28;20003;-45
2020/12/23 09:49:38;;;;;;;;;;;14.00;88.30;;;;;;5017038;28;19948;-43
2020/12/23 09:52:04;;;;;;;;;;;14.00;88.40;;;;;;5015248;28;19929;-45
2020/12/23 09:54:32;;;;;;;;;;;14.00;88.30;;;;;;5016385;28;19932;-43
2020/12/23 09:57:01;;;;;;;;;;;14.00;88.30;;;;;;5015417;28;20373;-43
2020/12/23 09:59:27;;;;;;;;;;;14.00;88.30;;;;;;5016277;28;19926;-44
2020/12/23 10:01:53;;;;;;;;;;;14.00;88.30;;;;;;5018661;28;19933;-44
2020/12/23 10:04:19;;;;;;;;;;;14.10;88.20;;;;;;5017504;28;19929;-44
2020/12/23 10:06:45;;;;;;;;;;;14.10;88.20;;;;;;5016562;28;19929;-43
2020/12/23 10:09:11;;;;;;;;;;;14.10;88.10;;;;;;5018163;28;19932;-45
2020/12/23 10:11:37;;;;;;;;;;;14.10;88.10;;;;;;5015392;28;19930;-44
2020/12/23 10:14:07;;;;;;;;;;;14.10;88.10;;;;;;5018759;28;20008;-43
2020/12/23 10:16:34;;;;;;;;;;;14.20;88.10;;;;;;5020763;28;20035;-44
2020/12/23 10:19:00;;;;;;;;;;;14.20;88.00;;;;;;5021710;28;19932;-43
2020/12/23 10:21:26;;;;;;;;;;;14.20;88.10;;;;;;5020425;28;19937;-43
2020/12/23 10:23:56;;;;;;;;;;;14.20;88.10;;;;;;5018995;28;19932;-43
2020/12/23 10:26:22;;;;;;;;;;;14.30;87.90;;;;;;5018214;28;19925;-44
2020/12/23 10:28:51;;;;;;;;;;;14.30;88.00;;;;;;5021296;28;19925;-45
2020/12/23 10:31:17;;;;;;;;;;;14.30;88.00;;;;;;5019826;28;19933;-45
2020/12/23 10:33:43;;;;;;;;;;;14.30;88.00;;;;;;5020431;28;19933;-44
2020/12/23 10:36:16;;;;;;;;;;;14.30;87.80;;;;;;5020184;28;20304;-45
2020/12/23 10:38:46;;;;;;;;;;;14.30;87.90;;;;;;5021146;28;19925;-44
2020/12/23 10:41:16;;;;;;;;;;;14.30;87.90;;;;;;5019618;28;19930;-44
2020/12/23 10:43:42;;;;;;;;;;;14.40;87.70;;;;;;5021377;28;20279;-44
2020/12/23 10:46:08;;;;;;;;;;;14.40;87.80;;;;;;5018866;28;19940;-43
2020/12/23 10:48:34;;;;;;;;;;;14.40;88.00;;;;;;5000651;28;19933;-46
2020/12/23 10:51:03;;;;;;;;;;;14.40;87.90;;;;;;5019521;28;20304;-44
2020/12/23 10:53:32;;;;;;;;;;;14.40;87.80;;;;;;5019073;28;19936;-43
2020/12/23 10:55:58;;;;;;;;;;;14.40;87.90;;;;;;5015724;28;19926;-44
2020/12/23 10:58:25;;;;;;;;;;;14.40;87.80;;;;;;5009687;28;19937;-45
2020/12/23 11:00:51;;;;;;;;;;;14.40;87.70;;;;;;5018873;28;19929;-44
2020/12/23 11:03:19;;;;;;;;;;;14.40;87.70;;;;;;5018504;28;20350;-45
2020/12/23 11:05:45;;;;;;;;;;;14.40;87.70;;;;;;5019207;28;19929;-45
2020/12/23 11:08:14;;;;;;;;;;;14.40;87.60;;;;;;5034087;28;19931;-44
2020/12/23 11:10:40;;;;;;;;;;;14.30;87.70;;;;;;5020316;28;19929;-44
2020/12/23 11:13:06;;;;;;;;;;;14.30;87.70;;;;;;5020149;28;20364;-44
2020/12/23 11:15:33;;;;;;;;;;;14.30;87.50;;;;;;5023154;28;19925;-43
2020/12/23 11:17:59;;;;;;;;;;;14.30;87.60;;;;;;5021641;28;19936;-44
2020/12/23 11:20:27;;;;;;;;;;;14.20;87.70;;;;;;5021093;28;19936;-43
2020/12/23 11:22:53;;;;;;;;;;;14.20;87.70;;;;;;5023282;28;19925;-43
2020/12/23 11:25:20;;;;;;;;;;;14.10;87.70;;;;;;5018659;28;20386;-44
2020/12/23 11:27:46;;;;;;;;;;;14.10;87.50;;;;;;5020069;28;19936;-42
2020/12/23 11:30:12;;;;;;;;;;;14.00;87.80;;;;;;5018547;28;19963;-45
2020/12/23 11:32:38;;;;;;;;;;;14.00;88.00;;;;;;5018618;28;23630;-45
2020/12/23 11:35:05;;;;;;;;;;;14.00;88.00;;;;;;5019858;28;19929;-43
2020/12/23 11:37:31;;;;;;;;;;;14.00;88.00;;;;;;5018283;28;19975;-43
2020/12/23 11:39:58;;;;;;;;;;;14.00;88.00;;;;;;5019913;28;19932;-45
2020/12/23 11:42:24;;;;;;;;;;;14.00;88.00;;;;;;5018249;28;19925;-44
2020/12/23 11:44:50;;;;;;;;;;;14.00;88.00;;;;;;5020109;28;19925;-44
2020/12/23 11:47:17;;;;;;;;;;;14.00;87.80;;;;;;5018192;28;20406;-45
2020/12/23 11:49:43;;;;;;;;;;;14.00;87.80;;;;;;5019251;28;19948;-44
2020/12/23 11:52:12;;;;;;;;;;;13.90;87.80;;;;;;5018980;28;19996;-44
2020/12/23 11:54:38;;;;;;;;;;;13.90;88.20;;;;;;5020541;28;19932;-44
2020/12/23 11:57:04;;;;;;;;;;;14.00;88.10;;;;;;5020336;28;20015;-45
2020/12/23 11:59:31;;;;;;;;;;;14.00;88.10;;;;;;5016586;28;19929;-43
2020/12/23 12:01:57;;;;;;;;;;;13.90;88.00;;;;;;5033627;28;19925;-44
2020/12/23 12:04:24;;;;;;;;;;;13.90;87.90;;;;;;5018606;28;19926;-44
2020/12/23 12:06:53;;;;;;;;;;;13.90;87.80;;;;;;5023173;28;19952;-44
2020/12/23 12:09:19;;;;;;;;;;;13.90;87.60;;;;;;5018287;28;20285;-44
2020/12/23 12:11:45;;;;;;;;;;;13.90;87.60;;;;;;5019321;28;19929;-45
2020/12/23 12:14:14;;;;;;;;;;;13.90;87.80;;;;;;5021739;28;19925;-43
2020/12/23 12:16:43;;;;;;;;;;;13.90;87.90;;;;;;5017954;28;19925;-45
2020/12/23 12:19:10;;;;;;;;;;;13.90;87.70;;;;;;5034375;28;19931;-44
2020/12/23 12:21:37;;;;;;;;;;;13.80;87.50;;;;;;5022506;28;19933;-45
2020/12/23 12:24:05;;;;;;;;;;;13.80;87.70;;;;;;5016536;28;20004;-44
2020/12/23 12:26:32;;;;;;;;;;;13.80;87.50;;;;;;5017886;28;19926;-45
2020/12/23 12:28:59;;;;;;;;;;;13.90;87.20;;;;;;5017296;28;19932;-44
2020/12/23 12:31:29;;;;;;;;;;;13.90;87.20;;;;;;5018525;28;19944;-43
2020/12/23 12:33:58;;;;;;;;;;;13.90;86.90;;;;;;5017082;28;19933;-45
2020/12/23 12:36:24;;;;;;;;;;;13.90;86.80;;;;;;5017939;28;19936;-44
2020/12/23 12:38:54;;;;;;;;;;;13.80;86.70;;;;;;5015899;28;19935;-44
2020/12/23 12:41:27;;;;;;;;;;;13.80;86.80;;;;;;5019688;28;20276;-45
2020/12/23 12:43:54;;;;;;;;;;;13.90;86.70;;;;;;5017019;28;19932;-45
2020/12/23 12:46:22;;;;;;;;;;;13.80;86.50;;;;;;5015508;28;19935;-44
2020/12/23 12:48:49;;;;;;;;;;;13.80;86.90;;;;;;5016374;28;19951;-45
2020/12/23 12:51:15;;;;;;;;;;;13.80;87.00;;;;;;5017340;28;19929;-44
2020/12/23 12:53:41;;;;;;;;;;;13.80;87.10;;;;;;5016303;28;19961;-44
2020/12/23 12:56:07;;;;;;;;;;;13.90;87.10;;;;;;5018094;28;19972;-45
2020/12/23 12:58:34;;;;;;;;;;;13.90;87.00;;;;;;5015955;28;19929;-44
2020/12/23 13:01:00;;;;;;;;;;;13.90;87.10;;;;;;5016934;28;19933;-45
2020/12/23 13:03:27;;;;;;;;;;;13.90;87.10;;;;;;5016348;28;20432;-45
2020/12/23 13:05:53;;;;;;;;;;;13.90;86.70;;;;;;5016847;28;19935;-44
2020/12/23 13:08:19;;;;;;;;;;;13.90;87.00;;;;;;5017102;28;19933;-44
2020/12/23 13:10:46;;;;;;;;;;;13.90;87.00;;;;;;5018354;28;19936;-44
2020/12/23 13:13:13;;;;;;;;;;;13.90;86.90;;;;;;5015675;28;19936;-45
2020/12/23 13:15:39;;;;;;;;;;;13.90;86.90;;;;;;5017253;28;19932;-45
2020/12/23 13:18:10;;;;;;;;;;;13.90;87.00;;;;;;5017837;28;19932;-45
2020/12/23 13:20:36;;;;;;;;;;;13.90;87.10;;;;;;5015890;28;19929;-45
2020/12/23 13:23:02;;;;;;;;;;;14.00;87.00;;;;;;5016868;28;19940;-45
2020/12/23 13:25:31;;;;;;;;;;;14.00;87.10;;;;;;5014744;28;20273;-44
2020/12/23 13:27:58;;;;;;;;;;;14.00;87.20;;;;;;5015792;28;20008;-44
2020/12/23 13:30:26;;;;;;;;;;;14.00;87.00;;;;;;5015311;28;20029;-44
2020/12/23 13:32:55;;;;;;;;;;;14.10;86.90;;;;;;5015440;28;20018;-45
2020/12/23 13:35:21;;;;;;;;;;;14.00;86.90;;;;;;5016083;28;19937;-45
2020/12/23 13:37:50;;;;;;;;;;;14.00;86.90;;;;;;5015355;28;19933;-43
2020/12/23 13:40:18;;;;;;;;;;;14.00;86.80;;;;;;5015249;28;19929;-43
2020/12/23 13:42:46;;;;;;;;;;;13.90;87.10;;;;;;5015150;28;20480;-44
2020/12/23 13:45:12;;;;;;;;;;;13.80;87.60;;;;;;5015327;28;19925;-42
2020/12/23 13:47:38;;;;;;;;;;;13.80;87.60;;;;;;5015440;28;20373;-43
2020/12/23 13:50:06;;;;;;;;;;;13.90;87.70;;;;;;5017055;28;19929;-42
2020/12/23 13:52:32;;;;;;;;;;;13.90;87.60;;;;;;5020411;28;19995;-43
2020/12/23 13:54:59;;;;;;;;;;;13.90;87.60;;;;;;5021845;28;19940;-44
2020/12/23 13:57:26;;;;;;;;;;;13.90;87.70;;;;;;5021311;28;19965;-43
2020/12/23 13:59:52;;;;;;;;;;;13.90;87.60;;;;;;5020484;28;19925;-43
2020/12/23 14:02:19;;;;;;;;;;;13.90;87.60;;;;;;5019591;28;19933;-43
2020/12/23 14:04:45;;;;;;;;;;;13.90;87.60;;;;;;5020909;28;19933;-43
2020/12/23 14:07:11;;;;;;;;;;;14.00;87.50;;;;;;5022515;28;20370;-44
2020/12/23 14:09:38;;;;;;;;;;;14.00;87.20;;;;;;5008978;28;19935;-44
2020/12/23 14:12:07;;;;;;;;;;;14.00;87.10;;;;;;5020611;28;19925;-44
2020/12/23 14:14:33;;;;;;;;;;;14.00;87.20;;;;;;5019763;28;19973;-45
2020/12/23 14:17:00;;;;;;;;;;;14.00;87.20;;;;;;5022468;28;20377;-45
2020/12/23 14:19:26;;;;;;;;;;;14.00;87.20;;;;;;5020330;28;20530;-44